Skip Navigation LinksHome page > Weather > Current weather Skip Navigation Links

Current Weather

Ronald Reagan Washington National, Washington

For information only: do not use for flight planning or navigation.
Latest weather
Observation time Monday, May 22, 2017 11:20 AM EDT
Local time Monday, May 22, 2017 11:41 AM EDT
Flight conditions Instrument Meteorological Conditions
Winds
Wind speed calm
Visibility 10 mi.
Present weather light rain
Sky condition
Ceiling 700 ft. overcast
Cloud layer overcast 700 ft.
Temperature 63°F
Dewpoint 61°F
Altimeter 30.06 in.Hg
Precipitation
Precipitation last hour trace
Derived measurements
Relative humidity 93%
Density altitude 367 ft.
Remarks
Automated weather observing station with precipitation discriminator.
METAR KDCA 221520Z 00000KT 10SM -RA OVC007 17/16 A3006 RMK AO2 P0000 T01720161

Settings

Location code

InnerDrive.Weather 4.0.6144.1 Release CLR 4.0.30319.36366
Copyright ©2015 Inner Drive Technology. All rights reserved. Portions Copyright ©1986-2015 David Braverman.

Find weather

Site navigation


Skip Navigation Links

Place info

Page info

PayPal - The safer, easier way to pay online!

Return home.

Copyright ©2017 Inner Drive Technology. Purveyors of fine, hand-crafted computer software. Page printed 2017-05-22T15:41:01 UTC.